Time,TemperatureF,DewpointF,PressureIn,WindDirection,WindDirectionDegrees,WindSpeedMPH,WindSpeedGustMPH,Humidity,HourlyPrecipIn,Conditions,Clouds,dailyrainin,SoftwareType,DateUTC
2013-07-31 00:01:00,62.4,53.6,28.56,South,171,2.7,3.5,73,0.00,CLR,OVC,0.00,WeatherDisplay:10.37,2013-07-31 04:01:00,
2013-07-31 00:02:00,62.4,53.6,28.56,SSW,200,2.2,3.5,73,0.00,CLR,OVC,0.00,WeatherDisplay:10.37,2013-07-31 04:02:00,
2013-07-31 00:07:00,62.2,51.9,28.56,SSW,192,4.9,8.1,69,0.00,CLR,OVC,0.00,WeatherDisplay:10.37,2013-07-31 04:07:00,
2013-07-31 00:12:00,62.4,51.3,28.56,WSW,244,2.2,3.5,67,0.00,CLR,OVC,0.00,WeatherDisplay:10.37,2013-07-31 04:12:00,
2013-07-31 00:17:00,62.4,50.1,28.56,South,181,4.9,8.1,64,0.00,CLR,OVC,0.00,WeatherDisplay:10.37,2013-07-31 04:17:00,
2013-07-31 00:22:00,62.6,50.7,28.56,SSW,208,2.7,3.5,65,0.00,CLR,OVC,0.00,WeatherDisplay:10.37,2013-07-31 04:22:00,
2013-07-31 00:27:00,62.6,51.5,28.53,South,186,2.7,3.5,67,0.00,CLR,OVC,0.00,WeatherDisplay:10.37,2013-07-31 04:27:00,
2013-07-31 00:32:00,62.8,51.7,28.53,South,184,0.0,3.5,67,0.00,CLR,OVC,0.00,WeatherDisplay:10.37,2013-07-31 04:32:00,
2013-07-31 00:37:00,62.6,51.9,28.53,SSW,200,0.0,3.6,68,0.00,CLR,OVC,0.00,WeatherDisplay:10.37,2013-07-31 04:37:00,
2013-07-31 00:42:00,62.6,51.9,28.53,South,170,3.1,5.8,68,0.00,CLR,OVC,0.00,WeatherDisplay:10.37,2013-07-31 04:42:00,
2013-07-31 00:47:00,62.8,52.8,28.53,South,188,2.7,3.5,70,0.00,CLR,OVC,0.00,WeatherDisplay:10.37,2013-07-31 04:47:00,
2013-07-31 00:52:00,62.6,52.7,28.53,SW,214,3.6,4.6,70,0.00,CLR,OVC,0.00,WeatherDisplay:10.37,2013-07-31 04:52:00,
2013-07-31 00:57:00,62.6,52.7,28.53,South,183,0.0,2.7,70,0.00,CLR,OVC,0.00,WeatherDisplay:10.37,2013-07-31 04:57:00,
2013-07-31 01:02:00,62.6,53.1,28.53,SW,220,0.0,2.3,71,0.00,CLR,OVC,0.00,WeatherDisplay:10.37,2013-07-31 05:02:00,
2013-07-31 01:07:00,62.6,53.1,28.53,SW,220,0.0,0.0,71,0.00,CLR,OVC,0.00,WeatherDisplay:10.37,2013-07-31 05:07:00,
2013-07-31 01:12:00,62.6,53.1,28.53,SW,220,0.0,0.0,71,0.00,CLR,OVC,0.00,WeatherDisplay:10.37,2013-07-31 05:12:00,
2013-07-31 01:17:00,62.6,53.1,28.53,SW,220,0.0,0.0,71,0.00,CLR,OVC,0.00,WeatherDisplay:10.37,2013-07-31 05:17:00,
2013-07-31 01:22:00,62.4,52.9,28.53,SW,220,0.0,0.0,71,0.00,CLR,OVC,0.00,WeatherDisplay:10.37,2013-07-31 05:22:00,
2013-07-31 01:27:00,62.4,53.3,28.53,SW,220,0.0,0.0,72,0.00,CLR,OVC,0.00,WeatherDisplay:10.37,2013-07-31 05:27:00,
2013-07-31 01:32:00,62.4,53.3,28.53,SW,220,0.0,0.0,72,0.00,CLR,OVC,0.00,WeatherDisplay:10.37,2013-07-31 05:32:00,
2013-07-31 01:37:00,62.2,53.1,28.53,SW,219,0.0,0.0,72,0.00,CLR,OVC,0.00,WeatherDisplay:10.37,2013-07-31 05:37:00,
2013-07-31 01:42:00,62.2,53.5,28.53,SW,220,0.0,0.0,73,0.00,CLR,OVC,0.00,WeatherDisplay:10.37,2013-07-31 05:42:00,
2013-07-31 01:47:00,62.2,53.5,28.53,SW,220,0.0,0.0,73,0.00,CLR,OVC,0.00,WeatherDisplay:10.37,2013-07-31 05:47:00,
2013-07-31 01:52:00,62.1,52.9,28.53,SW,220,0.0,0.0,72,0.00,CLR,OVC,0.00,WeatherDisplay:10.37,2013-07-31 05:52:00,
2013-07-31 01:57:00,62.1,52.9,28.53,SW,220,0.0,0.0,72,0.00,CLR,OVC,0.00,WeatherDisplay:10.37,2013-07-31 05:57:00,
2013-07-31 02:02:00,62.1,53.3,28.53,SW,220,0.0,0.0,73,0.00,CLR,OVC,0.00,WeatherDisplay:10.37,2013-07-31 06:02:00,
2013-07-31 02:07:00,62.2,54.2,28.53,SW,220,0.0,0.0,75,0.00,CLR,OVC,0.00,WeatherDisplay:10.37,2013-07-31 06:07:00,
2013-07-31 02:12:00,62.4,54.8,28.53,South,179,0.0,0.0,76,0.00,CLR,OVC,0.00,WeatherDisplay:10.37,2013-07-31 06:12:00,
2013-07-31 02:17:00,62.4,54.8,28.53,South,179,0.0,0.0,76,0.00,CLR,OVC,0.00,WeatherDisplay:10.37,2013-07-31 06:17:00,
2013-07-31 02:22:00,62.4,54.8,28.53,South,179,0.0,0.0,76,0.00,CLR,OVC,0.00,WeatherDisplay:10.37,2013-07-31 06:22:00,
2013-07-31 02:27:00,62.4,54.8,28.53,South,179,0.0,0.0,76,0.00,CLR,OVC,0.00,WeatherDisplay:10.37,2013-07-31 06:27:00,
2013-07-31 02:32:00,62.4,54.8,28.53,South,179,0.0,0.0,76,0.00,CLR,OVC,0.00,WeatherDisplay:10.37,2013-07-31 06:32:00,
2013-07-31 02:37:00,62.4,54.8,28.53,South,179,0.0,0.0,76,0.00,CLR,OVC,0.00,WeatherDisplay:10.37,2013-07-31 06:37:00,
2013-07-31 02:42:00,62.4,54.8,28.53,South,179,0.0,0.0,76,0.00,CLR,OVC,0.00,WeatherDisplay:10.37,2013-07-31 06:42:00,
2013-07-31 02:47:00,61.3,54.4,28.53,South,178,0.0,0.0,78,0.00,CLR,OVC,0.00,WeatherDisplay:10.37,2013-07-31 06:47:00,
2013-07-31 02:52:00,61.5,54.9,28.53,South,178,0.0,0.0,79,0.00,CLR,OVC,0.00,WeatherDisplay:10.37,2013-07-31 06:52:00,
2013-07-31 02:57:00,61.5,55.3,28.53,South,178,0.0,0.0,80,0.00,CLR,OVC,0.00,WeatherDisplay:10.37,2013-07-31 06:57:00,
2013-07-31 03:02:00,61.3,54.8,28.53,South,178,0.0,0.0,79,0.00,CLR,OVC,0.00,WeatherDisplay:10.37,2013-07-31 07:02:00,
2013-07-31 03:07:00,61.2,54.6,28.53,South,178,0.0,0.0,79,0.00,CLR,OVC,0.00,WeatherDisplay:10.37,2013-07-31 07:07:00,
2013-07-31 03:12:00,61.2,54.9,28.50,South,178,0.0,0.0,80,0.00,CLR,OVC,0.00,WeatherDisplay:10.37,2013-07-31 07:12:00,
2013-07-31 03:17:00,61.0,54.4,28.50,South,178,0.0,0.0,79,0.00,CLR,OVC,0.00,WeatherDisplay:10.37,2013-07-31 07:17:00,
2013-07-31 03:22:00,60.4,53.5,28.50,South,178,0.0,0.0,78,0.00,CLR,OVC,0.00,WeatherDisplay:10.37,2013-07-31 07:22:00,
2013-07-31 03:27:00,60.3,53.7,28.50,South,178,0.0,0.0,79,0.00,CLR,OVC,0.00,WeatherDisplay:10.37,2013-07-31 07:27:00,
2013-07-31 03:32:00,60.4,54.2,28.50,South,178,0.0,0.0,80,0.00,CLR,OVC,0.00,WeatherDisplay:10.37,2013-07-31 07:32:00,
2013-07-31 03:37:00,60.6,54.4,28.50,South,178,0.0,0.0,80,0.00,CLR,OVC,0.00,WeatherDisplay:10.37,2013-07-31 07:37:00,
2013-07-31 03:42:00,61.0,55.1,28.50,South,178,0.0,0.0,81,0.00,CLR,OVC,0.00,WeatherDisplay:10.37,2013-07-31 07:42:00,
2013-07-31 03:47:00,61.0,55.1,28.50,South,178,0.0,0.0,81,0.00,CLR,OVC,0.00,WeatherDisplay:10.37,2013-07-31 07:47:00,
2013-07-31 03:52:00,61.2,55.6,28.50,South,178,0.0,0.0,82,0.00,CLR,OVC,0.00,WeatherDisplay:10.37,2013-07-31 07:52:00,
2013-07-31 03:57:00,61.0,55.4,28.50,South,178,0.0,0.0,82,0.00,CLR,OVC,0.00,WeatherDisplay:10.37,2013-07-31 07:57:00,
2013-07-31 04:02:00,61.0,55.4,28.50,South,178,0.0,0.0,82,0.00,CLR,OVC,0.00,WeatherDisplay:10.37,2013-07-31 08:02:00,
2013-07-31 04:07:00,61.0,55.4,28.50,South,183,0.0,0.0,82,0.00,CLR,OVC,0.00,WeatherDisplay:10.37,2013-07-31 08:07:00,
2013-07-31 04:12:00,61.2,55.6,28.50,South,183,0.0,0.0,82,0.00,CLR,OVC,0.00,WeatherDisplay:10.37,2013-07-31 08:12:00,
2013-07-31 04:17:00,61.2,55.6,28.50,South,183,0.0,0.0,82,0.00,CLR,OVC,0.00,WeatherDisplay:10.37,2013-07-31 08:17:00,
2013-07-31 04:22:00,61.2,55.6,28.50,South,183,0.0,0.0,82,0.00,CLR,OVC,0.00,WeatherDisplay:10.37,2013-07-31 08:22:00,
2013-07-31 04:27:00,61.3,55.8,28.50,South,183,0.0,0.0,82,0.00,CLR,OVC,0.00,WeatherDisplay:10.37,2013-07-31 08:27:00,
2013-07-31 04:32:00,61.2,56.0,28.50,South,181,0.0,0.0,83,0.00,CLR,OVC,0.00,WeatherDisplay:10.37,2013-07-31 08:32:00,
2013-07-31 04:37:00,61.0,55.4,28.50,South,181,0.0,0.0,82,0.00,CLR,OVC,0.00,WeatherDisplay:10.37,2013-07-31 08:37:00,
2013-07-31 04:42:00,60.8,55.3,28.50,South,181,0.0,0.0,82,0.00,CLR,OVC,0.00,WeatherDisplay:10.37,2013-07-31 08:42:00,
2013-07-31 04:47:00,60.6,55.1,28.50,South,181,0.0,0.0,82,0.00,CLR,OVC,0.00,WeatherDisplay:10.37,2013-07-31 08:47:00,
2013-07-31 04:52:00,60.6,55.4,28.50,South,181,0.0,0.0,83,0.00,CLR,OVC,0.00,WeatherDisplay:10.37,2013-07-31 08:52:00,
2013-07-31 04:57:00,60.4,55.3,28.50,South,181,0.0,0.0,83,0.00,CLR,OVC,0.00,WeatherDisplay:10.37,2013-07-31 08:57:00,
2013-07-31 05:02:00,60.1,54.6,28.50,South,181,0.0,0.0,82,0.00,CLR,OVC,0.00,WeatherDisplay:10.37,2013-07-31 09:02:00,
2013-07-31 05:07:00,59.5,54.0,28.50,South,181,0.0,0.0,82,0.00,CLR,OVC,0.00,WeatherDisplay:10.37,2013-07-31 09:07:00,
2013-07-31 05:12:00,59.2,53.7,28.50,South,181,0.0,0.0,82,0.00,CLR,OVC,0.00,WeatherDisplay:10.37,2013-07-31 09:12:00,
2013-07-31 05:17:00,58.8,53.3,28.50,South,181,0.0,0.0,82,0.00,CLR,OVC,0.00,WeatherDisplay:10.37,2013-07-31 09:17:00,
2013-07-31 05:22:00,58.6,53.2,28.50,South,181,0.0,0.0,82,0.00,CLR,OVC,0.00,WeatherDisplay:10.37,2013-07-31 09:22:00,
2013-07-31 05:27:00,58.6,53.2,28.50,South,181,0.0,0.0,82,0.00,CLR,OVC,0.00,WeatherDisplay:10.37,2013-07-31 09:27:00,
2013-07-31 05:32:00,58.6,53.2,28.50,South,181,0.0,0.0,82,0.00,CLR,OVC,0.00,WeatherDisplay:10.37,2013-07-31 09:32:00,
2013-07-31 05:37:00,58.8,53.3,28.50,South,181,0.0,0.0,82,0.00,CLR,OVC,0.00,WeatherDisplay:10.37,2013-07-31 09:37:00,
2013-07-31 05:42:00,59.0,53.5,28.50,South,181,0.0,0.0,82,0.00,CLR,OVC,0.00,WeatherDisplay:10.37,2013-07-31 09:42:00,
2013-07-31 05:47:00,59.2,53.7,28.50,South,181,0.0,0.0,82,0.00,CLR,OVC,0.00,WeatherDisplay:10.37,2013-07-31 09:47:00,
2013-07-31 05:52:00,59.2,53.7,28.50,South,181,0.0,0.0,82,0.00,CLR,OVC,0.00,WeatherDisplay:10.37,2013-07-31 09:52:00,
2013-07-31 05:57:00,59.0,53.5,28.50,South,181,0.0,0.0,82,0.00,CLR,OVC,0.00,WeatherDisplay:10.37,2013-07-31 09:57:00,
2013-07-31 06:02:00,58.8,53.3,28.50,South,181,0.0,0.0,82,0.00,CLR,OVC,0.00,WeatherDisplay:10.37,2013-07-31 10:02:00,
2013-07-31 06:07:00,58.8,53.3,28.50,South,181,0.0,0.0,82,0.00,CLR,OVC,0.00,WeatherDisplay:10.37,2013-07-31 10:07:00,
2013-07-31 06:12:00,58.8,53.3,28.50,South,181,0.0,0.0,82,0.00,CLR,OVC,0.00,WeatherDisplay:10.37,2013-07-31 10:12:00,
2013-07-31 06:17:00,58.8,53.3,28.50,South,181,0.0,0.0,82,0.00,CLR,OVC,0.00,WeatherDisplay:10.37,2013-07-31 10:17:00,
2013-07-31 06:22:00,59.0,53.5,28.50,South,181,0.0,0.0,82,0.00,CLR,OVC,0.00,WeatherDisplay:10.37,2013-07-31 10:22:00,
2013-07-31 06:27:00,59.2,54.0,28.50,South,181,0.0,0.0,83,0.00,CLR,OVC,0.00,WeatherDisplay:10.37,2013-07-31 10:27:00,
2013-07-31 06:32:00,59.2,54.0,28.50,South,181,0.0,0.0,83,0.00,CLR,OVC,0.00,WeatherDisplay:10.37,2013-07-31 10:32:00,
2013-07-31 06:37:00,59.5,54.4,28.50,South,181,0.0,0.0,83,0.00,CLR,OVC,0.00,WeatherDisplay:10.37,2013-07-31 10:37:00,
2013-07-31 06:42:00,59.5,54.4,28.50,South,181,0.0,0.0,83,0.00,CLR,OVC,0.00,WeatherDisplay:10.37,2013-07-31 10:42:00,
2013-07-31 06:47:00,59.7,54.5,28.50,South,181,0.0,0.0,83,0.00,CLR,OVC,0.00,WeatherDisplay:10.37,2013-07-31 10:47:00,
2013-07-31 06:52:00,59.7,54.2,28.50,South,181,0.0,0.0,82,0.00,CLR,OVC,0.00,WeatherDisplay:10.37,2013-07-31 10:52:00,
2013-07-31 06:57:00,59.7,54.2,28.50,South,181,0.0,0.0,82,0.00,CLR,OVC,0.00,WeatherDisplay:10.37,2013-07-31 10:57:00,
2013-07-31 07:02:00,59.9,54.4,28.50,South,181,0.0,0.0,82,0.00,CLR,OVC,0.00,WeatherDisplay:10.37,2013-07-31 11:02:00,
2013-07-31 07:07:00,60.1,54.6,28.50,South,181,0.0,0.0,82,0.00,CLR,OVC,0.00,WeatherDisplay:10.37,2013-07-31 11:07:00,
2013-07-31 07:12:00,60.3,54.7,28.47,South,181,0.0,0.0,82,0.00,CLR,OVC,0.00,WeatherDisplay:10.37,2013-07-31 11:12:00,
2013-07-31 07:17:00,60.6,55.4,28.47,South,181,0.0,0.0,83,0.00,CLR,OVC,0.00,WeatherDisplay:10.37,2013-07-31 11:17:00,
2013-07-31 07:22:00,60.8,55.6,28.47,South,181,0.0,0.0,83,0.00,CLR,OVC,0.00,WeatherDisplay:10.37,2013-07-31 11:22:00,
2013-07-31 07:27:00,61.2,56.0,28.50,South,181,0.0,0.0,83,0.00,CLR,OVC,0.00,WeatherDisplay:10.37,2013-07-31 11:27:00,
2013-07-31 07:32:00,61.3,56.1,28.50,South,181,0.0,0.0,83,0.00,CLR,OVC,0.00,WeatherDisplay:10.37,2013-07-31 11:32:00,
2013-07-31 07:37:00,61.3,56.1,28.50,South,181,0.0,0.0,83,0.00,CLR,OVC,0.00,WeatherDisplay:10.37,2013-07-31 11:37:00,
2013-07-31 07:42:00,61.3,56.1,28.50,South,181,0.0,0.0,83,0.00,CLR,OVC,0.00,WeatherDisplay:10.37,2013-07-31 11:42:00,
2013-07-31 07:47:00,61.5,56.3,28.50,South,181,0.0,0.0,83,0.00,CLR,OVC,0.00,WeatherDisplay:10.37,2013-07-31 11:47:00,
2013-07-31 07:52:00,61.9,56.7,28.50,SW,236,2.2,0.0,83,0.00,CLR,OVC,0.00,WeatherDisplay:10.37,2013-07-31 11:52:00,
2013-07-31 07:58:00,61.9,56.7,28.50,WSW,239,0.0,3.5,83,0.00,CLR,OVC,0.00,WeatherDisplay:10.37,2013-07-31 11:58:00,
2013-07-31 08:03:00,62.1,56.8,28.50,WNW,286,3.1,3.1,83,0.00,CLR,OVC,0.00,WeatherDisplay:10.37,2013-07-31 12:03:00,
2013-07-31 08:08:00,62.1,57.2,28.50,WSW,255,3.6,3.6,84,0.00,CLR,OVC,0.00,WeatherDisplay:10.37,2013-07-31 12:08:00,
2013-07-31 08:13:00,62.1,57.2,28.50,WSW,255,0.0,0.0,84,0.00,CLR,OVC,0.00,WeatherDisplay:10.37,2013-07-31 12:13:00,
2013-07-31 08:18:00,62.1,57.2,28.50,SW,235,3.6,3.6,84,0.00,CLR,OVC,0.00,WeatherDisplay:10.37,2013-07-31 12:18:00,
2013-07-31 08:23:00,62.2,57.3,28.50,SW,235,3.6,0.0,84,0.00,CLR,OVC,0.00,WeatherDisplay:10.37,2013-07-31 12:23:00,
2013-07-31 08:28:00,62.4,57.8,28.50,SW,235,3.6,0.0,85,0.00,CLR,OVC,0.00,WeatherDisplay:10.37,2013-07-31 12:28:00,
2013-07-31 08:33:00,62.4,57.8,28.50,SW,235,3.6,0.0,85,0.00,CLR,OVC,0.00,WeatherDisplay:10.37,2013-07-31 12:33:00,
2013-07-31 08:38:00,62.4,57.8,28.50,SW,235,3.6,0.0,85,0.00,CLR,OVC,0.00,WeatherDisplay:10.37,2013-07-31 12:38:00,
2013-07-31 08:43:00,62.4,57.8,28.50,SW,235,3.6,0.0,85,0.00,CLR,OVC,0.00,WeatherDisplay:10.37,2013-07-31 12:43:00,
2013-07-31 08:48:00,62.6,58.0,28.50,SW,226,3.1,0.0,85,0.00,CLR,OVC,0.00,WeatherDisplay:10.37,2013-07-31 12:48:00,
2013-07-31 08:53:00,62.8,58.2,28.50,SW,226,0.0,0.0,85,0.00,CLR,OVC,0.00,WeatherDisplay:10.37,2013-07-31 12:53:00,
2013-07-31 08:58:00,63.0,58.4,28.50,SW,226,0.0,0.0,85,0.00,CLR,OVC,0.00,WeatherDisplay:10.37,2013-07-31 12:58:00,
2013-07-31 09:03:00,63.5,58.9,28.50,SW,226,0.0,0.0,85,0.00,CLR,OVC,0.00,WeatherDisplay:10.37,2013-07-31 13:03:00,
2013-07-31 09:08:00,63.7,58.8,28.50,SW,226,0.0,0.0,84,0.00,CLR,OVC,0.00,WeatherDisplay:10.37,2013-07-31 13:08:00,
2013-07-31 09:13:00,64.4,59.5,28.50,SW,226,0.0,0.0,84,0.00,CLR,OVC,0.00,WeatherDisplay:10.37,2013-07-31 13:13:00,
2013-07-31 09:18:00,64.4,58.1,28.50,SW,226,0.0,0.0,80,0.00,CLR,OVC,0.00,WeatherDisplay:10.37,2013-07-31 13:18:00,
2013-07-31 09:23:00,64.6,57.2,28.50,SW,226,0.0,0.0,77,0.00,CLR,OVC,0.00,WeatherDisplay:10.37,2013-07-31 13:23:00,
2013-07-31 09:28:00,64.2,55.0,28.47,SW,226,0.0,0.0,72,0.00,CLR,OVC,0.00,WeatherDisplay:10.37,2013-07-31 13:28:00,
2013-07-31 09:33:00,64.4,55.2,28.47,SW,226,0.0,0.0,72,0.00,CLR,OVC,0.00,WeatherDisplay:10.37,2013-07-31 13:33:00,
2013-07-31 09:38:00,64.9,55.3,28.47,SW,226,0.0,0.0,71,0.00,CLR,OVC,0.00,WeatherDisplay:10.37,2013-07-31 13:38:00,
2013-07-31 09:43:00,65.5,54.6,28.47,SW,226,0.0,0.0,68,0.00,CLR,OVC,0.00,WeatherDisplay:10.37,2013-07-31 13:43:00,
2013-07-31 09:48:00,66.2,50.0,28.47,SW,226,0.0,0.0,56,0.00,CLR,OVC,0.00,WeatherDisplay:10.37,2013-07-31 13:48:00,
2013-07-31 09:53:00,67.1,49.4,28.47,SW,226,0.0,0.0,53,0.00,CLR,OVC,0.00,WeatherDisplay:10.37,2013-07-31 13:53:00,
2013-07-31 09:58:00,67.1,45.6,28.47,SW,226,0.0,0.0,46,0.00,CLR,OVC,0.00,WeatherDisplay:10.37,2013-07-31 13:58:00,
2013-07-31 10:03:00,67.3,48.5,28.47,SW,226,0.0,0.0,51,0.00,CLR,OVC,0.00,WeatherDisplay:10.37,2013-07-31 14:03:00,
2013-07-31 10:08:00,67.6,49.4,28.47,SW,226,0.0,0.0,52,0.00,CLR,OVC,0.00,WeatherDisplay:10.37,2013-07-31 14:08:00,
2013-07-31 10:13:00,67.5,47.1,28.47,SW,226,0.0,0.0,48,0.00,CLR,OVC,0.00,WeatherDisplay:10.37,2013-07-31 14:13:00,
2013-07-31 10:18:00,67.8,47.4,28.47,SW,226,0.0,0.0,48,0.00,CLR,OVC,0.00,WeatherDisplay:10.37,2013-07-31 14:18:00,
2013-07-31 10:23:00,68.9,46.7,28.47,SW,226,0.0,0.0,45,0.00,CLR,OVC,0.00,WeatherDisplay:10.37,2013-07-31 14:23:00,
2013-07-31 10:28:00,69.8,45.0,28.47,SW,226,0.0,0.0,41,0.00,CLR,OVC,0.00,WeatherDisplay:10.37,2013-07-31 14:28:00,
2013-07-31 10:33:00,70.3,42.8,28.47,SW,226,0.0,0.0,37,0.00,CLR,OVC,0.00,WeatherDisplay:10.37,2013-07-31 14:33:00,
2013-07-31 10:38:00,70.2,40.5,28.47,SW,226,0.0,0.0,34,0.00,CLR,OVC,0.00,WeatherDisplay:10.37,2013-07-31 14:38:00,
2013-07-31 10:43:00,70.2,41.2,28.47,SW,226,0.0,0.0,35,0.00,CLR,OVC,0.00,WeatherDisplay:10.37,2013-07-31 14:43:00,
2013-07-31 10:48:00,70.2,40.5,28.47,SW,226,0.0,0.0,34,0.00,CLR,OVC,0.00,WeatherDisplay:10.37,2013-07-31 14:48:00,
2013-07-31 10:53:00,69.8,40.2,28.47,SW,226,0.0,0.0,34,0.00,CLR,OVC,0.00,WeatherDisplay:10.37,2013-07-31 14:53:00,
2013-07-31 10:58:00,69.6,40.0,28.44,SW,226,0.0,0.0,34,0.00,CLR,OVC,0.00,WeatherDisplay:10.37,2013-07-31 14:58:00,
2013-07-31 11:03:00,69.4,39.8,28.44,SW,226,0.0,0.0,34,0.00,CLR,OVC,0.00,WeatherDisplay:10.37,2013-07-31 15:03:00,
2013-07-31 11:08:00,69.6,40.0,28.44,SW,226,0.0,0.0,34,0.00,CLR,OVC,0.00,WeatherDisplay:10.37,2013-07-31 15:08:00,
2013-07-31 11:13:00,69.8,40.2,28.44,NW,316,0.0,2.3,34,0.00,CLR,OVC,0.00,WeatherDisplay:10.37,2013-07-31 15:13:00,
2013-07-31 11:18:00,69.8,40.9,28.44,NW,316,0.0,2.7,35,0.00,CLR,OVC,0.00,WeatherDisplay:10.37,2013-07-31 15:18:00,
2013-07-31 11:23:00,70.0,41.1,28.44,NW,316,0.0,2.3,35,0.00,CLR,OVC,0.00,WeatherDisplay:10.37,2013-07-31 15:23:00,
2013-07-31 11:28:00,70.7,40.9,28.44,SW,227,2.7,2.7,34,0.00,CLR,OVC,0.00,WeatherDisplay:10.37,2013-07-31 15:28:00,
2013-07-31 11:33:00,71.4,40.8,28.44,SW,227,2.7,2.7,33,0.00,CLR,OVC,0.00,WeatherDisplay:10.37,2013-07-31 15:33:00,
2013-07-31 11:38:00,71.8,41.1,28.44,SW,227,2.7,2.7,33,0.00,CLR,OVC,0.00,WeatherDisplay:10.37,2013-07-31 15:38:00,
2013-07-31 11:43:00,72.0,40.5,28.44,SSW,197,0.0,4.6,32,0.00,CLR,OVC,0.00,WeatherDisplay:10.37,2013-07-31 15:43:00,
2013-07-31 11:48:00,71.8,40.3,28.44,NW,309,0.0,0.0,32,0.00,CLR,OVC,0.00,WeatherDisplay:10.37,2013-07-31 15:48:00,
2013-07-31 11:53:00,72.1,40.6,28.44,NW,309,0.0,0.0,32,0.00,CLR,OVC,0.00,WeatherDisplay:10.37,2013-07-31 15:53:00,
2013-07-31 11:58:00,73.2,40.8,28.44,NW,309,0.0,0.0,31,0.00,CLR,OVC,0.00,WeatherDisplay:10.37,2013-07-31 15:58:00,
2013-07-31 12:03:00,73.8,39.5,28.44,NW,325,3.1,3.5,29,0.00,CLR,OVC,0.00,WeatherDisplay:10.37,2013-07-31 16:03:00,
2013-07-31 12:08:00,73.6,41.1,28.44,NW,325,3.1,3.5,31,0.00,CLR,OVC,0.00,WeatherDisplay:10.37,2013-07-31 16:08:00,
2013-07-31 12:13:00,73.0,39.8,28.44,NW,325,3.1,3.5,30,0.00,CLR,OVC,0.00,WeatherDisplay:10.37,2013-07-31 16:13:00,
2013-07-31 12:18:00,72.3,40.0,28.44,South,183,2.7,3.5,31,0.00,CLR,OVC,0.00,WeatherDisplay:10.37,2013-07-31 16:18:00,
2013-07-31 12:23:00,71.8,41.1,28.44,South,183,2.7,2.7,33,0.00,CLR,OVC,0.00,WeatherDisplay:10.37,2013-07-31 16:23:00,
2013-07-31 12:28:00,72.0,40.5,28.44,South,183,2.7,2.7,32,0.00,CLR,OVC,0.00,WeatherDisplay:10.37,2013-07-31 16:28:00,
2013-07-31 12:33:00,72.1,39.8,28.44,SW,232,2.7,5.8,31,0.00,CLR,OVC,0.00,WeatherDisplay:10.37,2013-07-31 16:33:00,
2013-07-31 12:38:00,72.5,40.1,28.44,WSW,258,2.7,0.0,31,0.00,CLR,OVC,0.00,WeatherDisplay:10.37,2013-07-31 16:38:00,
2013-07-31 12:43:00,72.3,40.0,28.44,NNW,337,2.2,2.3,31,0.00,CLR,OVC,0.00,WeatherDisplay:10.37,2013-07-31 16:43:00,
2013-07-31 12:48:00,73.0,40.6,28.44,SSW,194,2.7,3.5,31,0.00,CLR,OVC,0.00,WeatherDisplay:10.37,2013-07-31 16:48:00,
2013-07-31 12:53:00,73.8,38.6,28.44,SSW,199,4.5,5.8,28,0.00,CLR,OVC,0.00,WeatherDisplay:10.37,2013-07-31 16:53:00,
2013-07-31 12:58:00,73.9,38.8,28.44,SSW,203,4.9,5.8,28,0.00,CLR,OVC,0.00,WeatherDisplay:10.37,2013-07-31 16:58:00,
2013-07-31 13:03:00,75.0,39.7,28.44,SSW,203,4.9,4.9,28,0.00,CLR,OVC,0.00,WeatherDisplay:10.37,2013-07-31 17:03:00,
2013-07-31 13:08:00,75.4,40.0,28.44,SW,232,4.0,4.6,28,0.00,CLR,OVC,0.00,WeatherDisplay:10.37,2013-07-31 17:08:00,
2013-07-31 13:13:00,75.6,37.2,28.41,SW,232,4.0,4.6,25,0.00,CLR,OVC,0.00,WeatherDisplay:10.37,2013-07-31 17:13:00,
2013-07-31 13:18:00,76.5,39.0,28.41,SSW,210,6.3,6.3,26,0.00,CLR,OVC,0.00,WeatherDisplay:10.37,2013-07-31 17:18:00,
2013-07-31 13:23:00,77.0,36.3,28.41,SSW,210,6.3,6.3,23,0.00,CLR,OVC,0.00,WeatherDisplay:10.37,2013-07-31 17:23:00,
2013-07-31 13:28:00,76.8,35.1,28.41,SSW,210,6.3,6.3,22,0.00,CLR,OVC,0.00,WeatherDisplay:10.37,2013-07-31 17:28:00,
2013-07-31 13:33:00,76.5,35.9,28.41,SSW,210,6.3,6.3,23,0.00,CLR,OVC,0.00,WeatherDisplay:10.37,2013-07-31 17:33:00,
2013-07-31 13:38:00,75.7,37.4,28.41,SSW,210,6.3,6.3,25,0.00,CLR,OVC,0.00,WeatherDisplay:10.37,2013-07-31 17:38:00,
2013-07-31 13:43:00,75.2,36.9,28.41,SSW,210,6.3,6.3,25,0.00,CLR,OVC,0.00,WeatherDisplay:10.37,2013-07-31 17:43:00,
2013-07-31 13:48:00,74.8,37.6,28.41,SSW,210,6.3,6.3,26,0.00,CLR,OVC,0.00,WeatherDisplay:10.37,2013-07-31 17:48:00,
2013-07-31 13:53:00,74.7,37.5,28.41,SSW,194,3.1,5.8,26,0.00,CLR,OVC,0.00,WeatherDisplay:10.37,2013-07-31 17:53:00,
2013-07-31 13:58:00,74.3,36.2,28.41,SSW,194,3.1,3.1,25,0.00,CLR,OVC,0.00,WeatherDisplay:10.37,2013-07-31 17:58:00,
2013-07-31 14:03:00,73.8,38.6,28.41,SSW,194,3.1,3.1,28,0.00,CLR,OVC,0.00,WeatherDisplay:10.37,2013-07-31 18:03:00,
2013-07-31 14:08:00,73.2,36.3,28.41,SSW,194,3.1,3.1,26,0.00,CLR,OVC,0.00,WeatherDisplay:10.37,2013-07-31 18:08:00,
2013-07-31 14:13:00,73.4,35.4,28.41,SSW,194,3.1,3.1,25,0.00,CLR,OVC,0.00,WeatherDisplay:10.37,2013-07-31 18:13:00,
2013-07-31 14:18:00,73.8,37.7,28.41,SSW,194,3.1,3.1,27,0.00,CLR,OVC,0.00,WeatherDisplay:10.37,2013-07-31 18:18:00,
2013-07-31 14:23:00,74.1,36.0,28.41,SSW,194,3.1,3.1,25,0.00,CLR,OVC,0.00,WeatherDisplay:10.37,2013-07-31 18:23:00,
2013-07-31 14:28:00,74.1,32.8,28.38,SSW,194,3.1,3.1,22,0.00,CLR,OVC,0.00,WeatherDisplay:10.37,2013-07-31 18:28:00,
2013-07-31 14:33:00,74.1,32.8,28.38,West,280,3.1,8.1,22,0.00,CLR,OVC,0.00,WeatherDisplay:10.37,2013-07-31 18:33:00,
2013-07-31 14:38:00,74.1,32.8,28.38,West,280,3.1,8.1,22,0.00,CLR,OVC,0.00,WeatherDisplay:10.37,2013-07-31 18:38:00,
2013-07-31 14:43:00,74.1,33.9,28.38,SW,227,0.0,8.1,23,0.00,CLR,OVC,0.00,WeatherDisplay:10.37,2013-07-31 18:43:00,
2013-07-31 14:48:00,74.5,33.1,28.38,NW,322,3.6,4.6,22,0.00,CLR,OVC,0.00,WeatherDisplay:10.37,2013-07-31 18:48:00,
2013-07-31 14:53:00,75.7,34.2,28.38,West,280,2.2,8.1,22,0.00,CLR,OVC,0.00,WeatherDisplay:10.37,2013-07-31 18:53:00,
2013-07-31 14:58:00,77.0,34.1,28.38,West,270,3.6,5.8,21,0.00,CLR,OVC,0.00,WeatherDisplay:10.37,2013-07-31 18:58:00,
2013-07-31 15:03:00,77.5,34.5,28.38,West,265,4.0,5.8,21,0.00,CLR,OVC,0.00,WeatherDisplay:10.37,2013-07-31 19:03:00,
2013-07-31 15:08:00,77.0,32.8,28.38,NW,322,4.9,4.9,20,0.00,CLR,OVC,0.00,WeatherDisplay:10.37,2013-07-31 19:08:00,
2013-07-31 15:13:00,77.0,34.1,28.38,SW,235,2.7,6.9,21,0.00,CLR,OVC,0.00,WeatherDisplay:10.37,2013-07-31 19:13:00,
2013-07-31 15:18:00,77.9,33.6,28.38,West,281,3.6,6.9,20,0.00,CLR,OVC,0.00,WeatherDisplay:10.37,2013-07-31 19:18:00,
2013-07-31 15:23:00,79.2,34.6,28.38,West,261,5.4,8.1,20,0.00,CLR,OVC,0.00,WeatherDisplay:10.37,2013-07-31 19:23:00,
2013-07-31 15:28:00,79.2,34.6,28.38,West,261,5.4,8.1,20,0.00,CLR,OVC,0.00,WeatherDisplay:10.37,2013-07-31 19:28:00,
2013-07-31 15:33:00,78.1,33.7,28.38,West,261,5.4,8.1,20,0.00,CLR,OVC,0.00,WeatherDisplay:10.37,2013-07-31 19:33:00,
2013-07-31 15:38:00,75.7,33.0,28.38,West,261,5.4,8.1,21,0.00,CLR,OVC,0.00,WeatherDisplay:10.37,2013-07-31 19:38:00,
2013-07-31 15:43:00,73.9,31.5,28.38,West,261,5.4,8.1,21,0.00,CLR,OVC,0.00,WeatherDisplay:10.37,2013-07-31 19:43:00,
2013-07-31 15:48:00,72.7,32.7,28.38,NW,321,2.2,8.1,23,0.00,CLR,OVC,0.00,WeatherDisplay:10.37,2013-07-31 19:48:00,
2013-07-31 15:53:00,71.8,33.0,28.38,West,263,4.9,8.1,24,0.00,CLR,OVC,0.00,WeatherDisplay:10.37,2013-07-31 19:53:00,
2013-07-31 15:58:00,71.2,32.6,28.38,WSW,252,4.9,6.3,24,0.00,CLR,OVC,0.00,WeatherDisplay:10.37,2013-07-31 19:58:00,
2013-07-31 16:03:00,71.1,34.4,28.38,West,271,0.0,5.8,26,0.00,CLR,OVC,0.00,WeatherDisplay:10.37,2013-07-31 20:03:00,
2013-07-31 16:08:00,70.9,35.2,28.38,West,278,3.1,3.5,27,0.00,CLR,OVC,0.00,WeatherDisplay:10.37,2013-07-31 20:08:00,
2013-07-31 16:13:00,70.9,37.9,28.38,South,180,0.0,10.4,30,0.00,CLR,OVC,0.00,WeatherDisplay:10.37,2013-07-31 20:13:00,
2013-07-31 16:18:00,70.7,37.7,28.38,SSW,192,2.7,0.0,30,0.00,CLR,OVC,0.00,WeatherDisplay:10.37,2013-07-31 20:18:00,
2013-07-31 16:23:00,70.7,38.6,28.38,SW,235,3.1,5.8,31,0.00,CLR,OVC,0.00,WeatherDisplay:10.37,2013-07-31 20:23:00,
2013-07-31 16:28:00,70.7,38.6,28.38,South,172,0.0,0.0,31,0.00,CLR,OVC,0.00,WeatherDisplay:10.37,2013-07-31 20:28:00,
2013-07-31 16:33:00,71.1,38.9,28.38,SW,235,0.0,5.8,31,0.00,CLR,OVC,0.00,WeatherDisplay:10.37,2013-07-31 20:33:00,
2013-07-31 16:38:00,71.2,39.0,28.38,WSW,239,2.7,4.6,31,0.00,CLR,OVC,0.00,WeatherDisplay:10.37,2013-07-31 20:38:00,
2013-07-31 16:43:00,71.4,39.2,28.38,WSW,249,4.5,4.5,31,0.00,CLR,OVC,0.00,WeatherDisplay:10.37,2013-07-31 20:43:00,
2013-07-31 16:48:00,71.8,38.7,28.38,WNW,283,3.1,6.3,30,0.00,CLR,OVC,0.00,WeatherDisplay:10.37,2013-07-31 20:48:00,
2013-07-31 16:53:00,73.0,38.0,28.38,West,276,2.2,3.5,28,0.00,CLR,OVC,0.00,WeatherDisplay:10.37,2013-07-31 20:53:00,
2013-07-31 16:58:00,73.0,37.1,28.38,WSW,250,2.7,5.8,27,0.00,CLR,OVC,0.00,WeatherDisplay:10.37,2013-07-31 20:58:00,
2013-07-31 17:03:00,72.9,36.9,28.38,SW,229,4.0,4.0,27,0.00,CLR,OVC,0.00,WeatherDisplay:10.37,2013-07-31 21:03:00,
2013-07-31 17:08:00,72.5,40.1,28.38,WSW,244,0.0,3.5,31,0.00,CLR,OVC,0.00,WeatherDisplay:10.37,2013-07-31 21:08:00,
2013-07-31 17:13:00,72.1,39.8,28.38,WSW,244,0.0,3.5,31,0.00,CLR,OVC,0.00,WeatherDisplay:10.37,2013-07-31 21:13:00,
2013-07-31 17:18:00,71.8,40.3,28.38,WSW,244,0.0,3.5,32,0.00,CLR,OVC,0.00,WeatherDisplay:10.37,2013-07-31 21:18:00,
2013-07-31 17:23:00,71.1,40.5,28.38,WSW,244,0.0,3.5,33,0.00,CLR,OVC,0.00,WeatherDisplay:10.37,2013-07-31 21:23:00,
2013-07-31 17:28:00,70.3,39.1,28.38,WSW,244,0.0,3.5,32,0.00,CLR,OVC,0.00,WeatherDisplay:10.37,2013-07-31 21:28:00,
2013-07-31 17:33:00,69.8,39.4,28.38,WSW,244,0.0,3.5,33,0.00,CLR,OVC,0.00,WeatherDisplay:10.37,2013-07-31 21:33:00,
2013-07-31 17:38:00,69.4,38.3,28.38,WSW,244,0.0,4.0,32,0.00,CLR,OVC,0.00,WeatherDisplay:10.37,2013-07-31 21:38:00,
2013-07-31 17:43:00,68.9,37.8,28.38,WSW,244,0.0,3.5,32,0.00,CLR,OVC,0.00,WeatherDisplay:10.37,2013-07-31 21:43:00,
2013-07-31 17:48:00,68.2,37.2,28.38,WSW,244,0.0,3.5,32,0.00,CLR,OVC,0.00,WeatherDisplay:10.37,2013-07-31 21:48:00,
2013-07-31 17:53:00,67.5,37.3,28.38,WSW,244,0.0,3.5,33,0.00,CLR,OVC,0.00,WeatherDisplay:10.37,2013-07-31 21:53:00,
2013-07-31 17:58:00,67.1,37.0,28.38,WSW,244,0.0,3.5,33,0.00,CLR,OVC,0.00,WeatherDisplay:10.37,2013-07-31 21:58:00,
2013-07-31 18:03:00,66.9,38.4,28.38,WSW,244,0.0,3.5,35,0.00,CLR,OVC,0.00,WeatherDisplay:10.37,2013-07-31 22:03:00,
2013-07-31 18:08:00,66.6,38.0,28.38,WSW,244,0.0,3.5,35,0.00,CLR,OVC,0.00,WeatherDisplay:10.37,2013-07-31 22:08:00,
2013-07-31 18:13:00,66.4,38.6,28.38,WSW,244,0.0,3.5,36,0.00,CLR,OVC,0.00,WeatherDisplay:10.37,2013-07-31 22:13:00,
2013-07-31 18:18:00,66.2,38.4,28.38,WSW,244,0.0,3.5,36,0.00,CLR,OVC,0.00,WeatherDisplay:10.37,2013-07-31 22:18:00,
2013-07-31 18:23:00,65.3,41.0,28.38,WSW,244,0.0,4.0,41,0.00,CLR,OVC,0.00,WeatherDisplay:10.37,2013-07-31 22:23:00,
2013-07-31 18:28:00,64.6,41.0,28.38,WSW,244,0.0,4.0,42,0.00,CLR,OVC,0.00,WeatherDisplay:10.37,2013-07-31 22:28:00,
2013-07-31 18:33:00,63.9,41.5,28.38,WSW,244,0.0,3.5,44,0.00,CLR,OVC,0.00,WeatherDisplay:10.37,2013-07-31 22:33:00,
2013-07-31 18:38:00,63.1,42.0,28.38,WSW,244,0.0,3.5,46,0.00,CLR,OVC,0.00,WeatherDisplay:10.37,2013-07-31 22:38:00,
2013-07-31 18:43:00,62.6,43.7,28.38,WSW,244,0.0,3.5,50,0.00,CLR,OVC,0.00,WeatherDisplay:10.37,2013-07-31 22:43:00,
2013-07-31 18:48:00,62.2,43.9,28.38,WSW,244,0.0,3.5,51,0.00,CLR,OVC,0.00,WeatherDisplay:10.37,2013-07-31 22:48:00,
2013-07-31 18:53:00,62.6,43.7,28.38,WSW,244,0.0,3.5,50,0.00,CLR,OVC,0.00,WeatherDisplay:10.37,2013-07-31 22:53:00,
2013-07-31 18:58:00,63.0,43.0,28.38,WSW,244,0.0,3.5,48,0.00,CLR,OVC,0.00,WeatherDisplay:10.37,2013-07-31 22:58:00,
2013-07-31 19:03:00,63.1,42.0,28.38,WSW,244,0.0,3.5,46,0.00,CLR,OVC,0.00,WeatherDisplay:10.37,2013-07-31 23:03:00,
2013-07-31 19:08:00,64.2,44.1,28.38,WSW,244,0.0,3.5,48,0.00,CLR,OVC,0.00,WeatherDisplay:10.37,2013-07-31 23:08:00,
2013-07-31 19:13:00,64.8,41.7,28.38,WSW,244,0.0,4.0,43,0.00,CLR,OVC,0.00,WeatherDisplay:10.37,2013-07-31 23:13:00,
2013-07-31 19:18:00,64.8,42.3,28.38,WSW,244,0.0,3.5,44,0.00,CLR,OVC,0.00,WeatherDisplay:10.37,2013-07-31 23:18:00,
2013-07-31 19:23:00,64.8,40.5,28.38,WSW,244,0.0,3.5,41,0.00,CLR,OVC,0.00,WeatherDisplay:10.37,2013-07-31 23:23:00,
2013-07-31 19:28:00,64.8,38.5,28.38,WSW,239,3.1,3.1,38,0.00,CLR,OVC,0.00,WeatherDisplay:10.37,2013-07-31 23:28:00,
2013-07-31 19:33:00,64.0,38.6,28.38,West,276,0.0,2.3,39,0.00,CLR,OVC,0.00,WeatherDisplay:10.37,2013-07-31 23:33:00,
2013-07-31 19:38:00,63.5,40.0,28.38,West,275,0.0,0.0,42,0.00,CLR,OVC,0.00,WeatherDisplay:10.37,2013-07-31 23:38:00,
2013-07-31 19:43:00,63.9,40.9,28.38,SW,224,0.0,3.5,43,0.00,CLR,OVC,0.00,WeatherDisplay:10.37,2013-07-31 23:43:00,
2013-07-31 19:48:00,63.9,40.9,28.38,SW,225,0.0,0.0,43,0.00,CLR,OVC,0.00,WeatherDisplay:10.37,2013-07-31 23:48:00,
2013-07-31 19:53:00,63.9,40.9,28.38,SW,225,0.0,0.0,43,0.00,CLR,OVC,0.00,WeatherDisplay:10.37,2013-07-31 23:53:00,
2013-07-31 19:58:00,63.9,40.9,28.38,SSW,195,0.0,3.5,43,0.00,CLR,OVC,0.00,WeatherDisplay:10.37,2013-07-31 23:58:00,
2013-07-31 20:03:00,63.9,40.9,28.38,SSW,195,0.0,0.0,43,0.00,CLR,OVC,0.00,WeatherDisplay:10.37,2013-08-01 00:03:00,
2013-07-31 20:08:00,63.5,41.2,28.38,West,266,0.0,2.3,44,0.00,CLR,OVC,0.00,WeatherDisplay:10.37,2013-08-01 00:08:00,
2013-07-31 20:13:00,63.1,40.9,28.38,SW,220,2.7,2.7,44,0.00,CLR,OVC,0.00,WeatherDisplay:10.37,2013-08-01 00:13:00,
2013-07-31 20:18:00,63.0,41.3,28.38,SW,220,0.0,0.0,45,0.00,CLR,OVC,0.00,WeatherDisplay:10.37,2013-08-01 00:18:00,
2013-07-31 20:23:00,62.6,41.5,28.38,SW,220,0.0,0.0,46,0.00,CLR,OVC,0.00,WeatherDisplay:10.37,2013-08-01 00:23:00,
2013-07-31 20:28:00,62.4,41.9,28.38,SW,220,0.0,3.5,47,0.00,CLR,OVC,0.00,WeatherDisplay:10.37,2013-08-01 00:28:00,
2013-07-31 20:33:00,62.2,41.7,28.38,SW,220,0.0,3.5,47,0.00,CLR,OVC,0.00,WeatherDisplay:10.37,2013-08-01 00:33:00,
2013-07-31 20:38:00,61.9,41.4,28.38,SW,220,0.0,0.0,47,0.00,CLR,OVC,0.00,WeatherDisplay:10.37,2013-08-01 00:38:00,
2013-07-31 20:43:00,61.5,41.1,28.38,SW,220,0.0,0.0,47,0.00,CLR,OVC,0.00,WeatherDisplay:10.37,2013-08-01 00:43:00,
2013-07-31 20:48:00,61.0,40.6,28.38,SW,220,0.0,0.0,47,0.00,CLR,OVC,0.00,WeatherDisplay:10.37,2013-08-01 00:48:00,
2013-07-31 20:53:00,60.4,40.1,28.38,SW,220,0.0,0.0,47,0.00,CLR,OVC,0.00,WeatherDisplay:10.37,2013-08-01 00:53:00,
2013-07-31 20:58:00,59.9,40.1,28.38,SW,220,0.0,0.0,48,0.00,CLR,OVC,0.00,WeatherDisplay:10.37,2013-08-01 00:58:00,
2013-07-31 21:03:00,59.4,40.2,28.38,SW,220,0.0,0.0,49,0.00,CLR,OVC,0.00,WeatherDisplay:10.37,2013-08-01 01:03:00,
2013-07-31 21:08:00,58.8,39.7,28.38,SW,220,0.0,0.0,49,0.00,CLR,OVC,0.00,WeatherDisplay:10.37,2013-08-01 01:08:00,
2013-07-31 21:13:00,58.6,40.6,28.38,SW,220,0.0,0.0,51,0.00,CLR,OVC,0.00,WeatherDisplay:10.37,2013-08-01 01:13:00,
2013-07-31 21:18:00,58.3,40.2,28.38,SW,220,0.0,0.0,51,0.00,CLR,OVC,0.00,WeatherDisplay:10.37,2013-08-01 01:18:00,
2013-07-31 21:23:00,57.9,40.4,28.38,SW,220,0.0,0.0,52,0.00,CLR,OVC,0.00,WeatherDisplay:10.37,2013-08-01 01:23:00,
2013-07-31 21:28:00,57.4,40.4,28.38,SW,220,0.0,0.0,53,0.00,CLR,OVC,0.00,WeatherDisplay:10.37,2013-08-01 01:28:00,
2013-07-31 21:33:00,57.2,40.7,28.38,SW,220,0.0,0.0,54,0.00,CLR,OVC,0.00,WeatherDisplay:10.37,2013-08-01 01:33:00,
2013-07-31 21:38:00,56.8,40.4,28.38,SW,220,0.0,0.0,54,0.00,CLR,OVC,0.00,WeatherDisplay:10.37,2013-08-01 01:38:00,
2013-07-31 21:43:00,56.5,40.0,28.38,SW,220,0.0,0.0,54,0.00,CLR,OVC,0.00,WeatherDisplay:10.37,2013-08-01 01:43:00,
2013-07-31 21:48:00,56.1,40.2,28.38,SW,220,0.0,0.0,55,0.00,CLR,OVC,0.00,WeatherDisplay:10.37,2013-08-01 01:48:00,
2013-07-31 21:53:00,55.8,39.8,28.38,SW,220,0.0,0.0,55,0.00,CLR,OVC,0.00,WeatherDisplay:10.37,2013-08-01 01:53:00,
2013-07-31 21:58:00,55.8,40.7,28.38,SW,220,0.0,0.0,57,0.00,CLR,OVC,0.00,WeatherDisplay:10.37,2013-08-01 01:58:00,
2013-07-31 22:03:00,55.6,40.1,28.38,SW,220,0.0,0.0,56,0.00,CLR,OVC,0.00,WeatherDisplay:10.37,2013-08-01 02:03:00,
2013-07-31 22:08:00,55.2,40.2,28.38,SW,220,0.0,0.0,57,0.00,CLR,OVC,0.00,WeatherDisplay:10.37,2013-08-01 02:08:00,
2013-07-31 22:13:00,55.0,40.5,28.38,SW,220,0.0,0.0,58,0.00,CLR,OVC,0.00,WeatherDisplay:10.37,2013-08-01 02:13:00,
2013-07-31 22:18:00,55.0,41.0,28.38,SW,220,0.0,0.0,59,0.00,CLR,OVC,0.00,WeatherDisplay:10.37,2013-08-01 02:18:00,
2013-07-31 22:23:00,55.0,41.8,28.38,SW,220,0.0,0.0,61,0.00,CLR,OVC,0.00,WeatherDisplay:10.37,2013-08-01 02:23:00,
2013-07-31 22:28:00,55.0,42.3,28.38,SW,220,0.0,0.0,62,0.00,CLR,OVC,0.00,WeatherDisplay:10.37,2013-08-01 02:28:00,
2013-07-31 22:33:00,54.9,41.7,28.38,SW,220,0.0,0.0,61,0.00,CLR,OVC,0.00,WeatherDisplay:10.37,2013-08-01 02:33:00,
2013-07-31 22:38:00,54.7,41.9,28.38,SW,220,0.0,0.0,62,0.00,CLR,OVC,0.00,WeatherDisplay:10.37,2013-08-01 02:38:00,
2013-07-31 22:43:00,54.3,41.6,28.38,SW,220,0.0,0.0,62,0.00,CLR,OVC,0.00,WeatherDisplay:10.37,2013-08-01 02:43:00,
2013-07-31 22:48:00,54.1,41.4,28.38,SW,220,0.0,0.0,62,0.00,CLR,OVC,0.00,WeatherDisplay:10.37,2013-08-01 02:48:00,
2013-07-31 22:53:00,54.0,41.6,28.38,SW,220,0.0,0.0,63,0.00,CLR,OVC,0.00,WeatherDisplay:10.37,2013-08-01 02:53:00,
2013-07-31 22:58:00,53.8,41.5,28.38,SW,220,0.0,0.0,63,0.00,CLR,OVC,0.00,WeatherDisplay:10.37,2013-08-01 02:58:00,
2013-07-31 23:03:00,53.6,41.7,28.38,SW,220,0.0,0.0,64,0.00,CLR,OVC,0.00,WeatherDisplay:10.37,2013-08-01 03:03:00,
2013-07-31 23:08:00,53.6,41.3,28.38,SW,220,0.0,0.0,63,0.00,CLR,OVC,0.00,WeatherDisplay:10.37,2013-08-01 03:08:00,
2013-07-31 23:13:00,53.2,41.0,28.38,SW,220,0.0,0.0,63,0.00,CLR,OVC,0.00,WeatherDisplay:10.37,2013-08-01 03:13:00,
2013-07-31 23:18:00,53.1,41.2,28.38,SW,220,0.0,0.0,64,0.00,CLR,OVC,0.00,WeatherDisplay:10.37,2013-08-01 03:18:00,
2013-07-31 23:23:00,53.1,41.6,28.38,SW,220,0.0,0.0,65,0.00,CLR,OVC,0.00,WeatherDisplay:10.37,2013-08-01 03:23:00,
2013-07-31 23:28:00,53.1,41.6,28.38,SW,220,0.0,0.0,65,0.00,CLR,OVC,0.00,WeatherDisplay:10.37,2013-08-01 03:28:00,
2013-07-31 23:33:00,52.9,41.4,28.38,SW,220,0.0,0.0,65,0.00,CLR,OVC,0.00,WeatherDisplay:10.37,2013-08-01 03:33:00,
2013-07-31 23:38:00,52.9,41.8,28.38,SW,220,0.0,0.0,66,0.00,CLR,OVC,0.00,WeatherDisplay:10.37,2013-08-01 03:38:00,
2013-07-31 23:43:00,53.1,42.4,28.38,SW,220,0.0,0.0,67,0.00,CLR,OVC,0.00,WeatherDisplay:10.37,2013-08-01 03:43:00,
2013-07-31 23:48:00,52.9,41.8,28.38,SW,220,0.0,0.0,66,0.00,CLR,OVC,0.00,WeatherDisplay:10.37,2013-08-01 03:48:00,
2013-07-31 23:53:00,52.5,41.5,28.38,SW,220,0.0,0.0,66,0.00,CLR,OVC,0.00,WeatherDisplay:10.37,2013-08-01 03:53:00,
2013-07-31 23:58:00,52.2,41.1,28.38,SW,220,0.0,0.0,66,0.00,CLR,OVC,0.00,WeatherDisplay:10.37,2013-08-01 03:58:00,